Time;durP1;ratioP1;P1;durP2;ratioP2;P2;SDS_P1;SDS_P2;PMS_P1;PMS_P2;Temp;Humidity;BMP_temperature;BMP_pressure;BME280_temperature;BME280_humidity;BME280_pressure;Samples;Min_cycle;Max_cycle;Signal;HPM_P1;HPM_P2
2023/09/26 00:01:09;;;;;;;14.43;9.00;;;14.00;99.90;;;;;;5053049;28;20116;-63
2023/09/26 00:03:35;;;;;;;10.43;7.50;;;14.00;99.90;;;;;;5060377;28;20048;-63
2023/09/26 00:06:02;;;;;;;9.88;6.70;;;13.90;99.90;;;;;;5072637;28;20427;-63
2023/09/26 00:08:27;;;;;;;9.73;6.78;;;14.00;99.90;;;;;;5071999;28;20462;-63
2023/09/26 00:10:53;;;;;;;10.90;7.18;;;13.90;99.90;;;;;;5072867;28;20041;-63
2023/09/26 00:13:19;;;;;;;9.00;6.03;;;13.90;99.90;;;;;;5055436;28;20056;-63
2023/09/26 00:15:45;;;;;;;9.65;7.38;;;13.90;99.90;;;;;;5073181;28;20043;-63
2023/09/26 00:18:10;;;;;;;11.93;8.05;;;13.90;99.90;;;;;;5072688;28;20129;-63
2023/09/26 00:20:38;;;;;;;9.35;7.60;;;13.90;99.90;;;;;;5071882;28;20038;-63
2023/09/26 00:23:04;;;;;;;9.70;6.60;;;13.90;99.90;;;;;;5070705;28;20049;-63
2023/09/26 00:25:30;;;;;;;12.52;7.88;;;13.80;99.90;;;;;;5053158;28;20041;-63
2023/09/26 00:27:56;;;;;;;10.20;6.40;;;13.90;99.90;;;;;;5054254;28;20045;-63
2023/09/26 00:30:25;;;;;;;11.07;8.48;;;13.90;99.90;;;;;;5053237;28;20045;-63
2023/09/26 00:32:51;;;;;;;10.85;7.82;;;13.90;99.90;;;;;;5059078;28;20051;-63
2023/09/26 00:35:17;;;;;;;9.13;7.00;;;13.90;99.90;;;;;;5072235;28;20040;-63
2023/09/26 00:37:49;;;;;;;12.13;8.55;;;13.90;99.90;;;;;;5072311;28;20120;-63
2023/09/26 00:40:15;;;;;;;12.48;9.60;;;13.90;99.90;;;;;;5073083;28;20449;-63
2023/09/26 00:42:42;;;;;;;12.23;9.43;;;13.90;99.90;;;;;;5055861;28;20132;-63
2023/09/26 00:45:09;;;;;;;8.93;7.40;;;13.90;99.90;;;;;;5072334;28;20052;-63
2023/09/26 00:47:35;;;;;;;11.25;8.90;;;13.90;99.90;;;;;;5071671;28;20119;-63
2023/09/26 00:50:03;;;;;;;10.93;7.57;;;13.90;99.90;;;;;;5072139;28;20166;-63
2023/09/26 00:52:29;;;;;;;11.35;7.80;;;13.90;99.90;;;;;;5056555;28;20056;-63
2023/09/26 00:54:56;;;;;;;12.82;10.60;;;13.90;99.90;;;;;;5051838;28;20128;-63
2023/09/26 00:57:21;;;;;;;14.80;9.38;;;13.90;99.90;;;;;;5052316;28;20087;-63
2023/09/26 00:59:47;;;;;;;12.32;10.40;;;13.90;99.90;;;;;;5053439;28;20040;-63
2023/09/26 01:02:13;;;;;;;14.75;11.57;;;13.90;99.90;;;;;;5051149;28;20547;-63
2023/09/26 01:04:40;;;;;;;11.65;10.10;;;13.90;99.90;;;;;;5051679;28;20051;-63
2023/09/26 01:07:05;;;;;;;12.13;9.48;;;13.90;99.90;;;;;;5053597;28;20041;-63
2023/09/26 01:09:31;;;;;;;11.38;8.70;;;13.80;99.90;;;;;;5051413;28;20383;-64
2023/09/26 01:11:57;;;;;;;9.82;8.13;;;13.90;99.90;;;;;;5051861;28;20052;-63
2023/09/26 01:14:23;;;;;;;12.10;9.20;;;13.80;99.90;;;;;;5051619;28;20036;-63
2023/09/26 01:16:55;;;;;;;11.57;8.52;;;13.80;99.90;;;;;;5084587;28;20040;-63
2023/09/26 01:19:21;;;;;;;11.10;9.07;;;13.80;99.90;;;;;;5051185;28;20070;-63
2023/09/26 01:21:48;;;;;;;19.05;8.73;;;13.70;99.90;;;;;;5053395;28;20033;-63
2023/09/26 01:24:17;;;;;;;13.35;10.48;;;13.70;99.90;;;;;;5062819;28;20045;-63
2023/09/26 01:26:43;;;;;;;13.48;11.35;;;13.80;99.90;;;;;;5071670;28;20036;-63
2023/09/26 01:29:10;;;;;;;14.63;10.25;;;13.80;99.90;;;;;;5070828;28;20044;-63
2023/09/26 01:31:37;;;;;;;15.13;11.73;;;13.80;99.90;;;;;;5071191;28;20041;-63
2023/09/26 01:34:04;;;;;;;12.55;9.52;;;13.70;99.90;;;;;;5056530;28;20041;-63
2023/09/26 01:36:30;;;;;;;14.50;9.30;;;13.60;99.90;;;;;;5050364;28;20359;-63
2023/09/26 01:38:56;;;;;;;11.27;9.43;;;13.70;99.90;;;;;;5052245;28;20110;-63
2023/09/26 01:41:22;;;;;;;16.45;11.80;;;13.60;99.90;;;;;;5071256;28;20099;-63
2023/09/26 01:43:48;;;;;;;12.75;9.60;;;13.60;99.90;;;;;;5071823;28;20496;-63
2023/09/26 01:46:14;;;;;;;12.82;8.75;;;13.60;99.90;;;;;;5070969;28;20037;-63
2023/09/26 01:48:40;;;;;;;13.07;9.95;;;13.60;99.90;;;;;;5051673;28;20053;-63
2023/09/26 01:51:05;;;;;;;11.23;8.80;;;13.60;99.90;;;;;;5050522;28;20055;-63
2023/09/26 01:53:31;;;;;;;12.15;9.02;;;13.50;99.90;;;;;;5051088;28;20041;-63
2023/09/26 01:56:00;;;;;;;10.77;8.15;;;13.50;99.90;;;;;;5052349;28;20041;-63
2023/09/26 01:58:26;;;;;;;11.75;9.93;;;13.50;99.90;;;;;;5051511;28;20037;-63
2023/09/26 02:00:52;;;;;;;10.27;8.30;;;13.50;99.90;;;;;;5051879;28;20037;-63
2023/09/26 02:03:17;;;;;;;10.65;8.82;;;13.40;99.90;;;;;;5052236;28;20037;-63
2023/09/26 02:05:43;;;;;;;12.07;9.40;;;13.40;99.90;;;;;;5051363;28;20528;-63
2023/09/26 02:08:09;;;;;;;12.70;10.00;;;13.40;99.90;;;;;;5053234;28;20113;-63
2023/09/26 02:10:34;;;;;;;12.63;9.48;;;13.40;99.90;;;;;;5053064;28;20111;-63
2023/09/26 02:13:00;;;;;;;12.52;9.73;;;13.40;99.90;;;;;;5084063;28;20041;-63
2023/09/26 02:15:26;;;;;;;10.63;8.80;;;13.30;99.90;;;;;;5051016;28;20048;-63
2023/09/26 02:17:52;;;;;;;11.75;9.18;;;13.30;99.90;;;;;;5050611;28;20478;-63
2023/09/26 02:20:19;;;;;;;12.43;9.18;;;13.30;99.90;;;;;;5050385;28;20041;-63
2023/09/26 02:22:51;;;;;;;9.63;8.63;;;13.40;99.90;;;;;;5057569;28;20562;-63
2023/09/26 02:25:19;;;;;;;13.07;10.02;;;13.30;99.90;;;;;;5069849;28;20512;-63
2023/09/26 02:27:45;;;;;;;13.68;10.43;;;13.30;99.90;;;;;;5070526;28;20504;-63
2023/09/26 02:30:13;;;;;;;11.60;9.63;;;13.30;99.90;;;;;;5070518;28;20044;-63
2023/09/26 02:32:39;;;;;;;11.38;8.88;;;13.30;99.90;;;;;;5072065;28;20053;-63
2023/09/26 02:35:10;;;;;;;10.93;8.75;;;13.30;99.90;;;;;;5074929;28;20511;-63
2023/09/26 02:37:36;;;;;;;12.40;9.90;;;13.20;99.90;;;;;;5074750;28;20128;-63
2023/09/26 02:40:05;;;;;;;13.90;10.95;;;13.20;99.90;;;;;;5044771;28;20120;-63
2023/09/26 02:42:32;;;;;;;11.98;10.60;;;13.20;99.90;;;;;;5058109;28;20048;-63
2023/09/26 02:44:59;;;;;;;12.93;11.20;;;13.20;99.90;;;;;;5074822;28;20528;-63
2023/09/26 02:47:24;;;;;;;11.52;10.05;;;13.20;99.90;;;;;;5073819;28;20101;-63
2023/09/26 02:49:50;;;;;;;14.80;11.32;;;13.20;99.90;;;;;;5075645;28;20052;-63
2023/09/26 02:52:15;;;;;;;17.98;12.77;;;13.20;99.90;;;;;;5108454;28;20515;-63
2023/09/26 02:54:41;;;;;;;18.15;13.57;;;13.20;99.90;;;;;;5107526;28;20059;-63
2023/09/26 02:57:07;;;;;;;15.38;13.23;;;13.10;99.90;;;;;;5074355;28;20393;-63
2023/09/26 02:59:32;;;;;;;14.98;11.23;;;13.10;99.90;;;;;;5107988;28;20124;-63
2023/09/26 03:01:58;;;;;;;12.93;10.75;;;13.10;99.90;;;;;;5075007;28;20045;-63
2023/09/26 03:04:24;;;;;;;12.18;10.00;;;13.20;99.90;;;;;;5108152;28;20049;-63
2023/09/26 03:06:50;;;;;;;13.48;10.43;;;13.20;99.90;;;;;;5075403;28;20106;-63
2023/09/26 03:09:15;;;;;;;12.20;10.50;;;13.10;99.90;;;;;;5073849;28;20072;-63
2023/09/26 03:11:45;;;;;;;10.68;8.90;;;13.20;99.90;;;;;;5060218;28;20037;-63
2023/09/26 03:14:11;;;;;;;11.20;10.00;;;13.20;99.90;;;;;;5054105;28;20109;-63
2023/09/26 03:16:37;;;;;;;11.77;9.88;;;13.10;99.90;;;;;;5054470;28;20084;-63
2023/09/26 03:19:03;;;;;;;11.77;9.80;;;13.20;99.90;;;;;;5054179;28;20045;-63
2023/09/26 03:21:28;;;;;;;11.63;9.20;;;13.10;99.90;;;;;;5053180;28;20068;-63
2023/09/26 03:23:54;;;;;;;15.60;13.23;;;13.20;99.90;;;;;;5037757;28;20044;-63
2023/09/26 03:26:20;;;;;;;15.05;13.05;;;13.10;99.90;;;;;;5053825;28;20115;-63
2023/09/26 03:28:46;;;;;;;13.27;11.88;;;13.10;99.90;;;;;;5052909;28;20045;-63
2023/09/26 03:31:11;;;;;;;12.52;10.38;;;13.10;99.90;;;;;;5053462;28;20052;-63
2023/09/26 03:33:37;;;;;;;15.60;13.40;;;13.10;99.90;;;;;;5036859;28;20045;-63
2023/09/26 03:36:03;;;;;;;18.05;13.98;;;13.10;99.90;;;;;;5053132;28;20044;-63
2023/09/26 03:38:30;;;;;;;16.55;14.07;;;13.10;99.90;;;;;;5057979;28;20033;-63
2023/09/26 03:41:00;;;;;;;15.63;13.23;;;13.10;99.90;;;;;;5053920;28;20082;-63
2023/09/26 03:43:27;;;;;;;17.05;13.98;;;13.00;99.90;;;;;;5086295;28;20088;-63
2023/09/26 03:46:03;;;;;;;14.70;12.43;;;13.10;99.90;;;;;;5053435;28;20045;-63
2023/09/26 03:48:30;;;;;;;18.05;13.88;;;13.00;99.90;;;;;;5069932;28;20049;-63
2023/09/26 03:50:56;;;;;;;12.57;9.73;;;13.10;99.90;;;;;;5052781;28;20060;-63
2023/09/26 03:53:22;;;;;;;13.63;11.10;;;13.00;99.90;;;;;;5054337;28;20486;-63
2023/09/26 03:55:54;;;;;;;15.45;12.88;;;13.00;99.90;;;;;;5053122;28;20053;-63
2023/09/26 03:58:21;;;;;;;16.15;12.57;;;13.10;99.90;;;;;;5052746;28;20048;-63
2023/09/26 04:00:46;;;;;;;22.60;16.35;;;13.00;99.90;;;;;;5052884;28;20040;-63
2023/09/26 04:03:12;;;;;;;16.08;14.10;;;12.90;99.90;;;;;;5053642;28;20048;-63
2023/09/26 04:05:39;;;;;;;19.48;15.50;;;13.00;99.90;;;;;;5052591;28;20037;-63
2023/09/26 04:08:05;;;;;;;15.30;12.13;;;13.00;99.90;;;;;;5053745;28;20482;-63
2023/09/26 04:10:39;;;;;;;16.63;12.80;;;12.90;99.90;;;;;;5053455;28;20540;-63
2023/09/26 04:13:04;;;;;;;14.98;11.52;;;12.90;99.90;;;;;;5054283;28;20124;-63
2023/09/26 04:15:30;;;;;;;15.20;12.35;;;13.00;99.90;;;;;;5056103;28;20120;-63
2023/09/26 04:17:56;;;;;;;18.13;12.73;;;12.90;99.90;;;;;;5072468;28;20048;-63
2023/09/26 04:20:22;;;;;;;20.58;14.07;;;12.90;99.90;;;;;;5073857;28;20040;-63
2023/09/26 04:22:48;;;;;;;14.65;11.80;;;12.90;99.90;;;;;;5073917;28;20106;-63
2023/09/26 04:25:14;;;;;;;14.30;11.77;;;13.00;99.90;;;;;;5072330;28;20037;-63
2023/09/26 04:27:40;;;;;;;13.52;11.55;;;12.90;99.90;;;;;;5072631;28;20051;-63
2023/09/26 04:30:08;;;;;;;15.70;11.90;;;12.90;99.90;;;;;;5055886;28;20051;-63
2023/09/26 04:32:34;;;;;;;17.50;12.27;;;12.90;99.90;;;;;;5071782;28;20080;-63
2023/09/26 04:35:00;;;;;;;19.60;14.23;;;12.90;99.90;;;;;;5059634;28;20068;-63
2023/09/26 04:37:25;;;;;;;17.60;15.00;;;12.90;99.90;;;;;;5052785;28;20370;-63
2023/09/26 04:39:51;;;;;;;14.23;10.60;;;12.90;99.90;;;;;;5052951;28;20134;-63
2023/09/26 04:42:17;;;;;;;14.57;11.90;;;12.80;99.90;;;;;;5052325;28;20040;-63
2023/09/26 04:44:42;;;;;;;15.75;13.07;;;12.80;99.90;;;;;;5052912;28;20056;-63
2023/09/26 04:47:08;;;;;;;15.93;13.30;;;12.80;99.90;;;;;;5050921;28;20060;-63
2023/09/26 04:49:34;;;;;;;16.70;12.20;;;12.80;99.90;;;;;;5033314;28;20434;-63
2023/09/26 04:52:01;;;;;;;12.70;10.70;;;12.90;99.90;;;;;;5082748;28;20091;-63
2023/09/26 04:54:27;;;;;;;18.73;14.55;;;12.80;99.90;;;;;;5039031;28;20083;-63
2023/09/26 04:56:53;;;;;;;16.45;14.43;;;12.80;99.90;;;;;;5072254;28;20424;-63
2023/09/26 04:59:19;;;;;;;17.35;12.63;;;12.80;99.90;;;;;;5072062;28;20386;-63
2023/09/26 05:01:45;;;;;;;17.83;14.23;;;12.80;99.90;;;;;;5068657;28;20227;-63
2023/09/26 05:04:11;;;;;;;17.00;13.32;;;12.80;99.90;;;;;;5051791;28;20087;-63
2023/09/26 05:06:37;;;;;;;17.80;13.70;;;12.80;99.90;;;;;;5051824;28;20052;-63
2023/09/26 05:09:05;;;;;;;17.35;13.70;;;12.90;99.90;;;;;;5051291;28;20041;-63
2023/09/26 05:11:31;;;;;;;14.73;11.40;;;12.80;99.90;;;;;;5051857;28;20394;-63
2023/09/26 05:13:57;;;;;;;17.67;15.85;;;12.80;99.90;;;;;;5070165;28;20093;-63
2023/09/26 05:16:23;;;;;;;16.50;13.15;;;12.80;99.90;;;;;;5071676;28;20037;-63
2023/09/26 05:18:48;;;;;;;13.77;12.05;;;12.80;99.90;;;;;;5065377;28;20127;-63
2023/09/26 05:21:14;;;;;;;25.23;15.45;;;12.80;99.90;;;;;;5052628;28;20045;-63
2023/09/26 05:23:40;;;;;;;17.85;15.85;;;12.80;99.90;;;;;;5105062;28;20048;-63
2023/09/26 05:26:07;;;;;;;17.50;15.60;;;12.80;99.90;;;;;;5072841;28;20036;-63
2023/09/26 05:28:33;;;;;;;19.90;17.80;;;12.70;99.90;;;;;;5053522;28;20033;-63
2023/09/26 05:30:59;;;;;;;14.82;13.23;;;12.80;99.90;;;;;;5105322;28;20094;-63
2023/09/26 05:33:24;;;;;;;18.17;14.23;;;12.70;99.90;;;;;;5102394;28;20044;-63
2023/09/26 05:35:50;;;;;;;19.00;15.43;;;12.70;99.90;;;;;;5071170;28;20040;-63
2023/09/26 05:38:15;;;;;;;21.83;16.67;;;12.80;99.90;;;;;;5088137;28;20038;-63
2023/09/26 05:40:41;;;;;;;20.75;15.85;;;12.80;99.90;;;;;;5104888;28;20083;-63
2023/09/26 05:43:07;;;;;;;15.07;13.20;;;12.70;99.90;;;;;;5087195;28;20102;-63
2023/09/26 05:45:32;;;;;;;14.80;12.80;;;12.70;99.90;;;;;;5104970;28;20040;-63
2023/09/26 05:48:00;;;;;;;17.02;13.40;;;12.70;99.90;;;;;;5105386;28;20048;-63
2023/09/26 05:50:26;;;;;;;15.90;12.65;;;12.80;99.90;;;;;;5053548;28;20080;-63
2023/09/26 05:52:52;;;;;;;15.30;13.10;;;12.70;99.90;;;;;;5071082;28;20044;-63
2023/09/26 05:55:18;;;;;;;16.73;14.48;;;12.80;99.90;;;;;;5104499;28;20546;-63
2023/09/26 05:57:43;;;;;;;15.65;12.80;;;12.80;99.90;;;;;;5053247;28;20043;-63
2023/09/26 06:00:12;;;;;;;19.95;17.08;;;12.80;99.90;;;;;;5034618;28;20068;-63
2023/09/26 06:02:38;;;;;;;17.77;15.32;;;12.90;99.90;;;;;;5050678;28;20052;-63
2023/09/26 06:05:04;;;;;;;16.33;12.63;;;12.80;99.90;;;;;;5067480;28;20101;-63
2023/09/26 06:07:30;;;;;;;15.70;12.75;;;12.90;99.90;;;;;;5069654;28;20510;-63
2023/09/26 06:09:56;;;;;;;17.17;12.85;;;12.90;99.90;;;;;;5072251;28;20048;-63
2023/09/26 06:12:22;;;;;;;17.90;14.02;;;13.00;99.90;;;;;;5071305;28;20044;-63
2023/09/26 06:14:47;;;;;;;15.95;13.30;;;13.10;99.90;;;;;;5072024;28;20085;-63
2023/09/26 06:17:13;;;;;;;18.20;16.25;;;13.10;99.90;;;;;;5071497;28;20067;-63
2023/09/26 06:19:44;;;;;;;18.77;13.60;;;13.10;99.90;;;;;;5070625;28;20397;-63
2023/09/26 06:22:10;;;;;;;22.65;17.88;;;13.20;99.90;;;;;;5071862;28;20048;-63
2023/09/26 06:24:36;;;;;;;14.95;13.35;;;13.20;99.90;;;;;;5053087;28;20045;-63
2023/09/26 06:27:01;;;;;;;17.13;13.70;;;13.30;99.90;;;;;;5042933;28;20045;-63
2023/09/26 06:29:27;;;;;;;19.25;15.35;;;13.30;99.90;;;;;;5045251;28;20353;-63
2023/09/26 06:31:53;;;;;;;18.10;14.45;;;13.40;99.90;;;;;;5100775;28;20045;-63
2023/09/26 06:34:19;;;;;;;19.30;13.95;;;13.50;99.90;;;;;;5050563;28;20048;-63
2023/09/26 06:36:46;;;;;;;18.92;15.50;;;13.50;99.90;;;;;;5042638;28;20442;-63
2023/09/26 06:39:12;;;;;;;19.02;16.15;;;13.60;99.90;;;;;;5027680;28;20435;-64
2023/09/26 06:41:38;;;;;;;20.80;16.05;;;13.60;99.90;;;;;;5011882;28;20045;-63
2023/09/26 06:44:04;;;;;;;22.52;17.83;;;13.70;99.90;;;;;;5031604;28;20367;-63
2023/09/26 06:46:30;;;;;;;23.35;17.13;;;13.70;99.90;;;;;;5048366;28;20052;-63
2023/09/26 06:48:55;;;;;;;31.77;18.48;;;13.70;99.90;;;;;;5047549;28;20148;-64
2023/09/26 06:51:21;;;;;;;28.00;19.17;;;13.90;99.90;;;;;;5081206;28;20052;-63
2023/09/26 06:53:48;;;;;;;29.20;17.88;;;13.90;99.90;;;;;;5036560;28;20076;-63
2023/09/26 06:56:13;;;;;;;20.95;15.88;;;14.00;99.90;;;;;;5084847;28;20040;-64
2023/09/26 06:58:39;;;;;;;20.77;15.93;;;14.00;99.90;;;;;;5101246;28;20036;-63
2023/09/26 07:01:13;;;;;;;20.58;16.45;;;14.10;99.90;;;;;;5101195;28;20045;-63
2023/09/26 07:03:38;;;;;;;16.63;14.27;;;14.10;99.90;;;;;;5068157;28;20051;-63
2023/09/26 07:06:10;;;;;;;16.98;13.95;;;14.10;99.90;;;;;;5066914;28;20378;-63
2023/09/26 07:08:37;;;;;;;20.52;15.75;;;14.20;99.90;;;;;;5067031;28;20040;-63
2023/09/26 07:11:03;;;;;;;18.88;16.73;;;14.30;99.90;;;;;;5059124;28;20080;-63
2023/09/26 07:13:29;;;;;;;18.98;15.45;;;14.30;99.90;;;;;;5040840;28;20562;-64
2023/09/26 07:16:03;;;;;;;17.50;14.07;;;14.30;99.90;;;;;;5048461;28;20049;-63
2023/09/26 07:18:33;;;;;;;22.00;14.98;;;14.50;99.90;;;;;;5040551;28;20489;-63
2023/09/26 07:21:00;;;;;;;20.15;14.50;;;14.50;99.90;;;;;;5070444;28;20051;-63
2023/09/26 07:23:26;;;;;;;16.92;13.70;;;14.60;99.90;;;;;;5051378;28;20048;-63
2023/09/26 07:25:52;;;;;;;19.70;14.50;;;14.60;99.90;;;;;;5049977;28;20053;-63
2023/09/26 07:28:18;;;;;;;17.17;13.13;;;14.60;99.90;;;;;;5049052;28;20048;-63
2023/09/26 07:30:47;;;;;;;18.13;16.25;;;14.70;99.90;;;;;;5035611;28;20068;-63
2023/09/26 07:33:13;;;;;;;20.95;15.15;;;14.70;99.90;;;;;;5067836;28;20052;-63
2023/09/26 07:35:39;;;;;;;18.63;13.88;;;14.70;99.90;;;;;;5050375;28;20053;-63
2023/09/26 07:38:05;;;;;;;20.25;13.10;;;14.70;99.90;;;;;;5034561;28;20098;-63
2023/09/26 07:40:30;;;;;;;20.85;13.85;;;14.80;99.90;;;;;;5033820;28;20040;-63
2023/09/26 07:42:56;;;;;;;18.63;13.75;;;14.80;99.90;;;;;;5051481;28;20052;-63
2023/09/26 07:45:21;;;;;;;18.60;13.80;;;14.90;99.90;;;;;;5051037;28;20037;-63
2023/09/26 07:47:48;;;;;;;20.85;14.88;;;14.90;99.90;;;;;;5050764;28;20132;-63
2023/09/26 07:50:14;;;;;;;14.38;12.30;;;15.00;99.90;;;;;;5048992;28;20630;-63
2023/09/26 07:52:40;;;;;;;16.90;14.13;;;15.00;99.90;;;;;;5051898;28;20044;-63
2023/09/26 07:55:06;;;;;;;15.13;12.82;;;15.10;99.90;;;;;;5051047;28;20045;-63
2023/09/26 07:57:32;;;;;;;15.23;13.63;;;15.20;99.90;;;;;;5051262;28;20045;-63
2023/09/26 07:59:58;;;;;;;16.50;14.65;;;15.20;99.90;;;;;;5053988;28;20041;-64
2023/09/26 08:02:23;;;;;;;14.40;11.63;;;15.20;99.90;;;;;;5053568;28;20044;-64
2023/09/26 08:04:49;;;;;;;15.75;11.43;;;15.30;99.90;;;;;;5053491;28;20045;-64
2023/09/26 08:07:15;;;;;;;15.43;12.88;;;15.40;99.90;;;;;;5052901;28;20508;-64
2023/09/26 08:09:41;;;;;;;16.15;13.70;;;15.50;99.90;;;;;;5044079;28;20049;-64
2023/09/26 08:12:06;;;;;;;15.50;11.73;;;15.60;99.90;;;;;;5032951;28;20067;-64
2023/09/26 08:14:33;;;;;;;14.57;11.70;;;15.50;99.90;;;;;;5032681;28;20034;-64
2023/09/26 08:16:58;;;;;;;16.70;11.80;;;15.60;99.90;;;;;;5033849;28;20128;-64
2023/09/26 08:19:24;;;;;;;14.35;12.85;;;15.50;99.90;;;;;;5065980;28;20541;-64
2023/09/26 08:21:50;;;;;;;18.02;13.48;;;15.60;99.90;;;;;;5036739;28;20054;-64
2023/09/26 08:24:15;;;;;;;13.80;11.82;;;15.60;99.90;;;;;;5051829;28;20548;-64
2023/09/26 08:26:41;;;;;;;15.45;11.85;;;15.60;99.90;;;;;;5069411;28;20056;-64
2023/09/26 08:29:07;;;;;;;13.95;10.95;;;15.60;99.90;;;;;;5051866;28;20052;-64
2023/09/26 08:31:34;;;;;;;15.65;12.02;;;15.70;99.90;;;;;;5051731;28;20098;-64
2023/09/26 08:34:00;;;;;;;14.77;11.00;;;15.80;99.90;;;;;;5052468;28;20037;-64
2023/09/26 08:36:25;;;;;;;16.00;13.23;;;15.80;99.90;;;;;;5052328;28;20037;-64
2023/09/26 08:38:51;;;;;;;18.40;12.77;;;15.90;99.90;;;;;;5053149;28;20049;-64
2023/09/26 08:41:18;;;;;;;13.13;11.43;;;16.00;99.90;;;;;;5052523;28;20037;-64
2023/09/26 08:43:45;;;;;;;15.43;11.95;;;16.10;99.90;;;;;;5052297;28;20418;-64
2023/09/26 08:46:11;;;;;;;15.68;12.05;;;16.20;99.90;;;;;;5051687;28;20420;-64
2023/09/26 08:48:39;;;;;;;12.90;11.48;;;16.30;99.90;;;;;;5051808;28;20040;-64
2023/09/26 08:51:05;;;;;;;17.80;12.80;;;16.40;99.90;;;;;;5052583;28;20044;-64
2023/09/26 08:53:31;;;;;;;14.80;11.70;;;16.50;99.90;;;;;;5052809;28;20339;-64
2023/09/26 08:55:57;;;;;;;15.65;10.63;;;16.60;99.90;;;;;;5069065;28;20043;-64
2023/09/26 08:58:25;;;;;;;15.90;11.85;;;16.60;99.90;;;;;;5068375;28;20064;-64
2023/09/26 09:00:51;;;;;;;14.07;10.98;;;16.70;99.90;;;;;;5058236;28;20447;-64
2023/09/26 09:03:17;;;;;;;15.73;11.60;;;16.70;99.90;;;;;;5053712;28;20044;-64
2023/09/26 09:05:44;;;;;;;13.20;10.02;;;16.80;99.90;;;;;;5085394;28;20509;-64
2023/09/26 09:08:18;;;;;;;13.05;10.48;;;16.80;99.90;;;;;;5051386;28;20076;-64
2023/09/26 09:10:52;;;;;;;15.55;10.63;;;16.80;99.90;;;;;;5052019;28;20041;-65
2023/09/26 09:13:31;;;;;;;12.98;10.20;;;16.80;99.90;;;;;;5057488;28;20043;-64
2023/09/26 09:16:08;;;;;;;12.98;10.27;;;16.80;99.90;;;;;;5072076;28;20119;-64
2023/09/26 09:18:34;;;;;;;13.82;10.20;;;16.80;99.90;;;;;;5070523;28;20072;-65
2023/09/26 09:21:00;;;;;;;14.85;10.25;;;16.80;99.90;;;;;;5050258;28;20122;-65
2023/09/26 09:23:26;;;;;;;15.10;10.88;;;16.90;99.90;;;;;;5069629;28;20040;-65
2023/09/26 09:25:51;;;;;;;12.68;9.82;;;16.90;99.90;;;;;;5061521;28;20487;-65
2023/09/26 09:28:21;;;;;;;14.80;10.90;;;16.90;99.90;;;;;;5043639;28;20044;-64
2023/09/26 09:30:48;;;;;;;14.27;11.57;;;16.90;99.90;;;;;;5064417;28;20087;-64
2023/09/26 09:33:15;;;;;;;13.95;10.05;;;16.90;99.90;;;;;;5069144;28;20101;-64
2023/09/26 09:35:40;;;;;;;12.35;10.13;;;17.00;99.90;;;;;;5057158;28;20045;-64
2023/09/26 09:38:12;;;;;;;16.65;12.85;;;17.00;99.90;;;;;;5051178;28;20123;-64
2023/09/26 09:40:38;;;;;;;14.18;11.15;;;17.10;99.90;;;;;;5069645;28;20437;-64
2023/09/26 09:43:04;;;;;;;13.43;10.20;;;17.20;99.90;;;;;;5070765;28;20071;-64
2023/09/26 09:45:37;;;;;;;16.33;11.30;;;17.20;99.90;;;;;;5057646;28;20032;-64
2023/09/26 09:48:07;;;;;;;13.07;10.55;;;17.20;99.90;;;;;;5051104;28;20080;-64
2023/09/26 09:50:37;;;;;;;14.32;10.82;;;17.30;99.90;;;;;;5058566;28;20052;-64
2023/09/26 09:53:04;;;;;;;14.50;9.30;;;17.30;99.90;;;;;;5084587;28;20076;-64
2023/09/26 09:55:38;;;;;;;13.80;9.95;;;17.30;99.90;;;;;;5056413;28;20140;-64
2023/09/26 09:58:09;;;;;;;14.05;10.30;;;17.30;99.90;;;;;;5041323;28;20041;-64
2023/09/26 10:00:40;;;;;;;12.02;8.95;;;17.30;99.90;;;;;;5050949;28;20048;-64
2023/09/26 10:03:06;;;;;;;14.73;9.65;;;17.30;99.90;;;;;;5047741;28;20040;-64
2023/09/26 10:05:34;;;;;;;12.05;9.38;;;17.30;99.90;;;;;;5048053;28;20727;-64
2023/09/26 10:08:02;;;;;;;13.93;10.02;;;17.40;99.90;;;;;;5054726;28;20045;-64
2023/09/26 10:10:28;;;;;;;11.25;9.63;;;17.40;99.90;;;;;;5067136;28;20127;-64
2023/09/26 10:12:54;;;;;;;10.88;8.48;;;17.50;99.90;;;;;;5051810;28;20064;-64
2023/09/26 10:15:20;;;;;;;12.85;11.13;;;17.50;99.90;;;;;;5053363;28;20559;-64
2023/09/26 10:17:48;;;;;;;22.63;11.15;;;17.50;99.90;;;;;;5062192;28;20036;-64
2023/09/26 10:20:15;;;;;;;11.98;10.00;;;17.60;99.90;;;;;;5048490;28;20048;-64
2023/09/26 10:22:43;;;;;;;14.48;11.30;;;17.60;99.90;;;;;;5049394;28;20445;-64
2023/09/26 10:25:16;;;;;;;13.68;11.02;;;17.70;99.90;;;;;;5057443;28;20135;-64
2023/09/26 10:27:46;;;;;;;18.50;11.65;;;17.80;99.90;;;;;;5052310;28;20032;-64
2023/09/26 10:30:14;;;;;;;18.88;8.90;;;17.80;99.90;;;;;;5059271;28;20040;-64
2023/09/26 10:32:42;;;;;;;14.43;8.98;;;17.90;99.90;;;;;;5068506;28;20040;-64
2023/09/26 10:35:14;;;;;;;14.32;9.88;;;17.90;99.90;;;;;;5067829;28;20107;-64
2023/09/26 10:37:52;;;;;;;14.35;9.07;;;18.00;99.90;;;;;;5057425;28;20051;-64
2023/09/26 10:40:18;;;;;;;11.98;9.20;;;18.10;99.90;;;;;;5059407;28;20044;-64
2023/09/26 10:42:46;;;;;;;16.33;9.65;;;18.10;99.90;;;;;;5064382;28;20394;-63
2023/09/26 10:45:13;;;;;;;11.57;8.30;;;18.10;99.90;;;;;;5033186;28;20124;-63
2023/09/26 10:47:40;;;;;;;13.90;10.35;;;18.10;99.90;;;;;;5050409;28;20064;-63
2023/09/26 10:50:13;;;;;;;13.13;9.77;;;18.20;99.90;;;;;;5050000;28;20057;-63
2023/09/26 10:52:47;;;;;;;15.32;9.90;;;18.20;99.90;;;;;;5050394;28;20049;-63
2023/09/26 10:55:22;;;;;;;10.77;8.27;;;18.30;99.90;;;;;;5054426;28;20045;-63
2023/09/26 10:57:50;;;;;;;17.67;9.05;;;18.30;99.90;;;;;;5054244;28;20045;-63
2023/09/26 11:00:17;;;;;;;13.43;8.38;;;18.40;99.90;;;;;;5054514;28;20037;-63
2023/09/26 11:02:44;;;;;;;12.77;9.25;;;18.40;99.90;;;;;;5054104;28;20059;-63
2023/09/26 11:05:11;;;;;;;10.98;8.63;;;18.50;99.90;;;;;;5054082;28;20517;-63
2023/09/26 11:07:38;;;;;;;12.20;8.90;;;18.50;99.90;;;;;;5054582;28;20115;-63
2023/09/26 11:10:04;;;;;;;12.02;7.97;;;18.50;99.90;;;;;;5054557;28;20563;-63
2023/09/26 11:12:31;;;;;;;11.77;8.20;;;18.60;99.90;;;;;;5053653;28;20124;-63
2023/09/26 11:14:59;;;;;;;12.52;8.80;;;18.60;99.90;;;;;;5037188;28;20048;-63
2023/09/26 11:17:27;;;;;;;10.80;7.35;;;18.60;99.90;;;;;;5037292;28;20119;-63
2023/09/26 11:19:57;;;;;;;11.27;8.43;;;18.70;99.90;;;;;;5054011;28;20049;-63
2023/09/26 11:22:23;;;;;;;10.68;7.57;;;18.70;99.90;;;;;;5053861;28;20091;-64
2023/09/26 11:24:49;;;;;;;10.60;7.63;;;18.90;99.90;;;;;;5053777;28;20051;-63
2023/09/26 11:27:15;;;;;;;11.45;7.80;;;19.10;99.90;;;;;;5053181;28;20153;-63
2023/09/26 11:29:41;;;;;;;12.13;8.15;;;19.20;99.90;;;;;;5053351;28;20044;-63
2023/09/26 11:32:06;;;;;;;11.60;6.78;;;19.30;99.90;;;;;;5053880;28;20380;-63
2023/09/26 11:34:36;;;;;;;11.30;6.88;;;19.40;99.90;;;;;;5036239;28;20041;-64
2023/09/26 11:37:04;;;;;;;9.43;7.60;;;19.50;99.90;;;;;;5053728;28;20041;-63
2023/09/26 11:39:30;;;;;;;11.05;6.18;;;19.60;99.90;;;;;;5053095;28;20052;-64
2023/09/26 11:42:05;;;;;;;9.90;6.63;;;19.70;99.90;;;;;;5054080;28;20037;-63
2023/09/26 11:44:31;;;;;;;13.52;7.45;;;19.80;99.90;;;;;;5054451;28;20080;-63
2023/09/26 11:46:58;;;;;;;9.98;6.85;;;19.80;99.90;;;;;;5037078;28;20048;-64
2023/09/26 11:49:24;;;;;;;8.75;6.13;;;19.90;99.90;;;;;;5052216;28;20494;-64
2023/09/26 11:51:52;;;;;;;12.23;6.47;;;19.90;99.90;;;;;;5059639;28;20069;-64
2023/09/26 11:54:18;;;;;;;8.13;6.13;;;20.00;99.90;;;;;;5059721;28;20094;-64
2023/09/26 11:56:45;;;;;;;10.25;6.43;;;20.00;99.90;;;;;;5046151;28;20120;-65
2023/09/26 11:59:11;;;;;;;12.07;6.95;;;20.10;99.90;;;;;;5053280;28;20044;-64
2023/09/26 12:01:41;;;;;;;8.55;5.68;;;20.20;99.90;;;;;;5053105;28;20073;-67
2023/09/26 12:04:09;;;;;;;8.77;6.03;;;20.20;99.90;;;;;;5051756;28;20037;-65
2023/09/26 12:06:35;;;;;;;12.88;6.68;;;20.30;99.90;;;;;;5054537;28;20047;-66
2023/09/26 12:09:03;;;;;;;12.60;5.90;;;20.40;99.90;;;;;;5052527;28;20044;-65
2023/09/26 12:11:29;;;;;;;11.25;6.80;;;20.50;99.90;;;;;;5039500;28;20045;-64
2023/09/26 12:13:54;;;;;;;10.55;6.63;;;20.60;99.90;;;;;;5057132;28;20074;-66
2023/09/26 12:16:20;;;;;;;10.57;6.55;;;20.70;99.90;;;;;;5055255;28;20094;-65
2023/09/26 12:18:46;;;;;;;10.57;6.47;;;20.70;99.90;;;;;;5052931;28;20055;-65
2023/09/26 12:21:12;;;;;;;11.18;7.13;;;20.80;99.90;;;;;;5052698;28;20075;-65
2023/09/26 12:23:37;;;;;;;11.07;7.30;;;20.80;99.90;;;;;;5066870;28;20065;-65
2023/09/26 12:26:03;;;;;;;10.13;5.97;;;20.80;99.90;;;;;;5054312;28;20045;-65
2023/09/26 12:28:29;;;;;;;8.98;6.40;;;20.80;99.90;;;;;;5055662;28;20051;-64